createdAt,value
2017-11-04T00:01:48.711Z,100312.80
2017-11-04T00:04:20.082Z,100312.55
2017-11-04T00:06:51.722Z,100314.34
2017-11-04T00:09:23.190Z,100312.21
2017-11-04T00:11:54.789Z,100312.69
2017-11-04T00:14:26.130Z,100305.80
2017-11-04T00:16:57.516Z,100303.84
2017-11-04T00:19:30.132Z,100310.74
2017-11-04T00:22:02.683Z,100311.30
2017-11-04T00:24:34.352Z,100306.67
2017-11-04T00:27:05.901Z,100308.87
2017-11-04T00:29:37.605Z,100313.89
2017-11-04T00:32:09.591Z,100310.12
2017-11-04T00:34:40.930Z,100307.75
2017-11-04T00:37:13.507Z,100315.34
2017-11-04T00:39:44.820Z,100305.19
2017-11-04T00:42:16.133Z,100307.78
2017-11-04T00:44:47.813Z,100306.76
2017-11-04T00:47:19.317Z,100297.67
2017-11-04T00:49:50.732Z,100295.08
2017-11-04T00:52:22.417Z,100295.03
2017-11-04T00:54:53.733Z,100301.17
2017-11-04T00:57:25.047Z,100294.79
2017-11-04T00:59:56.352Z,100294.17
2017-11-04T01:02:27.653Z,100296.88
2017-11-04T01:04:59.263Z,100295.30
2017-11-04T01:07:30.623Z,100289.36
2017-11-04T01:10:02.707Z,100289.58
2017-11-04T01:12:34.372Z,100285.86
2017-11-04T01:15:05.982Z,100281.66
2017-11-04T01:17:37.497Z,100285.50
2017-11-04T01:20:10.394Z,100289.81
2017-11-04T01:22:41.799Z,100286.34
2017-11-04T01:25:13.750Z,100288.84
2017-11-04T01:27:45.532Z,100293.12
2017-11-04T01:30:16.854Z,100282.67
2017-11-04T01:32:48.186Z,100281.79
2017-11-04T01:35:19.867Z,100273.39
2017-11-04T01:37:51.169Z,100266.18
2017-11-04T01:40:22.532Z,100266.52
2017-11-04T01:42:54.164Z,100261.37
2017-11-04T01:45:25.499Z,100262.79
2017-11-04T01:47:56.957Z,100261.00
2017-11-04T01:50:29.626Z,100256.98
2017-11-04T01:53:01.166Z,100254.50
2017-11-04T01:55:32.553Z,100258.70
2017-11-04T01:58:06.329Z,100255.26
2017-11-04T02:00:37.863Z,100254.61
2017-11-04T02:03:09.964Z,100253.94
2017-11-04T02:05:41.599Z,100246.05
2017-11-04T02:08:13.001Z,100251.30
2017-11-04T02:10:44.593Z,100244.25
2017-11-04T02:13:15.951Z,100239.98
2017-11-04T02:15:47.862Z,100247.58
2017-11-04T02:18:19.229Z,100242.43
2017-11-04T02:20:50.890Z,100242.72
2017-11-04T02:23:22.213Z,100237.88
2017-11-04T02:25:53.525Z,100231.76
2017-11-04T02:28:25.168Z,100233.44
2017-11-04T02:30:56.479Z,100227.31
2017-11-04T02:33:28.078Z,100225.12
2017-11-04T02:35:59.438Z,100228.65
2017-11-04T02:38:31.083Z,100230.05
2017-11-04T02:41:04.453Z,100225.86
2017-11-04T02:43:35.750Z,100227.75
2017-11-04T02:46:07.571Z,100217.53
2017-11-04T02:48:39.396Z,100220.30
2017-11-04T02:51:11.638Z,100219.14
2017-11-04T02:53:43.017Z,100220.45
2017-11-04T02:56:14.734Z,100226.34
2017-11-04T02:58:46.040Z,100225.94
2017-11-04T03:01:17.363Z,100224.23
2017-11-04T03:03:49.009Z,100220.26
2017-11-04T03:06:21.371Z,100228.53
2017-11-04T03:08:52.966Z,100218.70
2017-11-04T03:11:24.286Z,100221.98
2017-11-04T03:13:55.607Z,100215.45
2017-11-04T03:16:27.236Z,100210.63
2017-11-04T03:18:58.547Z,100216.98
2017-11-04T03:21:29.993Z,100212.08
2017-11-04T03:24:03.850Z,100220.28
2017-11-04T03:26:35.229Z,100222.91
2017-11-04T03:29:06.909Z,100215.28
2017-11-04T03:31:38.536Z,100217.77
2017-11-04T03:34:10.818Z,100216.23
2017-11-04T03:36:42.145Z,100208.75
2017-11-04T03:39:15.100Z,100214.98
2017-11-04T03:41:46.436Z,100215.94
2017-11-04T03:44:17.889Z,100221.75
2017-11-04T03:46:49.552Z,100224.13
2017-11-04T03:49:21.082Z,100216.59
2017-11-04T03:51:52.381Z,100218.41
2017-11-04T03:54:25.031Z,100208.70
2017-11-04T03:56:56.366Z,100196.86
2017-11-04T03:59:27.685Z,100193.80
2017-11-04T04:01:59.317Z,100203.90
2017-11-04T04:04:30.676Z,100201.84
2017-11-04T04:07:02.459Z,100202.03
2017-11-04T04:09:34.347Z,100199.45
2017-11-04T04:12:06.518Z,100204.31
2017-11-04T04:14:38.017Z,100198.73
2017-11-04T04:17:10.370Z,100206.10
2017-11-04T04:19:41.695Z,100203.78
2017-11-04T04:22:14.256Z,100205.55
2017-11-04T04:24:45.596Z,100206.91
2017-11-04T04:27:18.579Z,100203.30
2017-11-04T04:29:50.514Z,100194.42
2017-11-04T04:32:22.113Z,100199.10
2017-11-04T04:34:53.469Z,100197.11
2017-11-04T04:37:25.908Z,100191.63
2017-11-04T04:39:57.355Z,100194.06
2017-11-04T04:42:28.771Z,100186.81
2017-11-04T04:45:00.467Z,100185.41
2017-11-04T04:47:31.893Z,100177.98
2017-11-04T04:50:08.533Z,100179.84
2017-11-04T04:52:40.767Z,100174.25
2017-11-04T04:55:12.917Z,100177.56
2017-11-04T04:57:44.245Z,100168.23
2017-11-04T05:00:16.473Z,100173.84
2017-11-04T05:02:47.847Z,100163.49
2017-11-04T05:05:20.805Z,100165.08
2017-11-04T05:07:53.073Z,100161.79
2017-11-04T05:10:24.724Z,100154.70
2017-11-04T05:12:56.056Z,100162.79
2017-11-04T05:15:27.531Z,100158.32
2017-11-04T05:17:59.116Z,100161.39
2017-11-04T05:20:30.491Z,100154.73
2017-11-04T05:23:02.614Z,100158.30
2017-11-04T05:25:34.233Z,100147.08
2017-11-04T05:28:07.757Z,100148.30
2017-11-04T05:30:39.102Z,100143.41
2017-11-04T05:33:13.483Z,100141.01
2017-11-04T05:35:44.873Z,100139.59
2017-11-04T05:38:16.471Z,100135.00
2017-11-04T05:40:48.240Z,100138.39
2017-11-04T05:43:19.669Z,100136.02
2017-11-04T05:45:50.996Z,100143.31
2017-11-04T05:48:22.352Z,100139.83
2017-11-04T05:50:53.759Z,100142.42
2017-11-04T05:53:25.391Z,100132.73
2017-11-04T05:55:57.653Z,100142.45
2017-11-04T05:58:29.121Z,100143.34
2017-11-04T06:01:01.029Z,100142.03
2017-11-04T06:03:32.346Z,100141.32
2017-11-04T06:06:04.856Z,100147.64
2017-11-04T06:09:39.127Z,100152.57
2017-11-04T06:12:10.608Z,100139.13
2017-11-04T06:14:41.965Z,100145.19
2017-11-04T06:17:13.792Z,100136.97
2017-11-04T06:19:45.096Z,100141.69
2017-11-04T06:22:17.066Z,100147.45
2017-11-04T06:24:49.205Z,100140.95
2017-11-04T06:27:20.965Z,100141.09
2017-11-04T06:29:52.544Z,100140.44
2017-11-04T06:32:24.007Z,100146.84
2017-11-04T06:34:55.352Z,100145.80
2017-11-04T06:37:27.045Z,100153.52
2017-11-04T06:39:58.353Z,100150.92
2017-11-04T06:42:29.898Z,100154.08
2017-11-04T06:45:01.819Z,100157.92
2017-11-04T06:47:33.173Z,100155.20
2017-11-04T06:50:05.388Z,100152.83
2017-11-04T06:52:37.165Z,100157.36
2017-11-04T06:55:08.674Z,100161.29
2017-11-04T06:57:40.102Z,100172.20
2017-11-04T07:00:12.363Z,100166.13
2017-11-04T07:02:43.757Z,100167.58
2017-11-04T07:05:15.441Z,100168.63
2017-11-04T07:07:46.811Z,100173.30
2017-11-04T07:10:18.165Z,100170.58
2017-11-04T07:12:49.874Z,100173.64
2017-11-04T07:15:21.232Z,100167.83
2017-11-04T07:17:52.568Z,100166.67
2017-11-04T07:20:24.242Z,100160.97
2017-11-04T07:22:55.647Z,100166.98
2017-11-04T07:25:27.472Z,100174.16
2017-11-04T07:27:59.391Z,100173.19
2017-11-04T07:30:30.752Z,100174.35
2017-11-04T07:33:02.826Z,100180.15
2017-11-04T07:35:34.149Z,100180.42
2017-11-04T07:38:06.829Z,100182.62
2017-11-04T07:40:38.305Z,100182.20
2017-11-04T07:43:09.853Z,100175.64
2017-11-04T07:45:41.476Z,100180.59
2017-11-04T07:48:12.921Z,100181.94
2017-11-04T07:50:44.313Z,100184.23
2017-11-04T07:53:16.065Z,100180.59
2017-11-04T07:55:47.465Z,100179.87
2017-11-04T07:58:19.091Z,100180.58
2017-11-04T08:00:50.547Z,100180.67
2017-11-04T08:03:21.959Z,100174.52
2017-11-04T08:05:53.696Z,100176.03
2017-11-04T08:08:25.038Z,100172.80
2017-11-04T08:10:58.939Z,100169.35
2017-11-04T08:13:31.344Z,100167.91
2017-11-04T08:16:03.517Z,100166.23
2017-11-04T08:18:34.864Z,100159.64
2017-11-04T08:21:06.529Z,100154.91
2017-11-04T08:23:37.859Z,100151.56
2017-11-04T08:26:09.356Z,100156.52
2017-11-04T08:28:41.062Z,100155.91
2017-11-04T08:31:12.425Z,100159.06
2017-11-04T08:33:43.889Z,100161.89
2017-11-04T08:36:20.909Z,100156.02
2017-11-04T08:38:52.367Z,100152.40
2017-11-04T08:41:25.420Z,100151.30
2017-11-04T08:43:56.952Z,100153.00
2017-11-04T08:46:28.420Z,100157.55
2017-11-04T08:49:00.182Z,100151.96
2017-11-04T08:51:36.007Z,100152.23
2017-11-04T08:56:37.732Z,100144.52
2017-11-04T08:59:10.553Z,100142.70
2017-11-04T09:01:42.869Z,100147.03
2017-11-04T09:04:15.800Z,100146.05
2017-11-04T09:09:17.211Z,100137.30
2017-11-04T09:11:48.551Z,100141.27
2017-11-04T09:14:20.327Z,100145.58
2017-11-04T09:16:51.989Z,100140.52
2017-11-04T09:19:23.311Z,100135.33
2017-11-04T09:21:54.612Z,100128.63
2017-11-04T09:24:25.996Z,100128.08
2017-11-04T09:26:58.003Z,100119.31
2017-11-04T09:29:29.647Z,100114.02
2017-11-04T09:32:01.068Z,100111.73
2017-11-04T09:34:32.684Z,100113.36
2017-11-04T09:37:04.414Z,100113.42
2017-11-04T09:39:35.732Z,100116.05
2017-11-04T09:42:08.272Z,100112.38
2017-11-04T09:44:39.649Z,100114.22
2017-11-04T09:47:11.097Z,100105.47
2017-11-04T09:49:42.788Z,100101.53
2017-11-04T09:52:16.009Z,100094.50
2017-11-04T09:54:47.400Z,100101.91
2017-11-04T09:57:20.517Z,100091.91
2017-11-04T09:59:51.883Z,100085.85
2017-11-04T10:02:23.232Z,100093.42
2017-11-04T10:04:55.118Z,100086.89
2017-11-04T10:07:26.490Z,100092.66
2017-11-04T10:09:57.864Z,100090.25
2017-11-04T10:12:29.468Z,100087.12
2017-11-04T10:15:00.786Z,100076.91
2017-11-04T10:17:32.313Z,100069.23
2017-11-04T10:20:05.005Z,100073.11
2017-11-04T10:22:36.314Z,100073.95
2017-11-04T10:25:07.702Z,100073.05
2017-11-04T10:27:39.649Z,100076.16
2017-11-04T10:30:12.034Z,100084.64
2017-11-04T10:32:43.515Z,100087.77
2017-11-04T10:35:16.036Z,100085.63
2017-11-04T10:37:47.531Z,100095.16
2017-11-04T10:40:18.853Z,100096.91
2017-11-04T10:42:50.444Z,100107.52
2017-11-04T10:45:21.784Z,100098.14
2017-11-04T10:47:53.099Z,100094.92
2017-11-04T10:50:25.371Z,100096.09
2017-11-04T10:52:59.756Z,100093.08
2017-11-04T10:55:31.059Z,100086.64
2017-11-04T10:58:04.464Z,100086.52
2017-11-04T11:00:35.812Z,100081.61
2017-11-04T11:03:07.112Z,100089.44
2017-11-04T11:05:38.739Z,100088.33
2017-11-04T11:08:10.274Z,100078.05
2017-11-04T11:10:41.583Z,100080.23
2017-11-04T11:13:13.191Z,100070.16
2017-11-04T11:15:44.561Z,100067.65
2017-11-04T11:18:15.880Z,100056.80
2017-11-04T11:20:48.465Z,100049.11
2017-11-04T11:23:20.315Z,100041.35
2017-11-04T11:25:51.647Z,100037.00
2017-11-04T11:28:23.293Z,100037.81
2017-11-04T11:30:54.843Z,100042.97
2017-11-04T11:33:26.464Z,100043.70
2017-11-04T11:35:57.875Z,100050.98
2017-11-04T11:38:29.200Z,100040.36
2017-11-04T11:41:00.761Z,100038.75
2017-11-04T11:43:33.266Z,100033.89
2017-11-04T11:46:05.965Z,100036.03
2017-11-04T11:48:37.263Z,100036.75
2017-11-04T11:51:10.362Z,100020.36
2017-11-04T11:53:41.703Z,100009.50
2017-11-04T11:56:13.284Z,100002.86
2017-11-04T11:58:45.034Z,99991.39
2017-11-04T12:01:16.306Z,99994.86
2017-11-04T12:03:47.998Z,99993.70
2017-11-04T12:06:19.359Z,99990.12
2017-11-04T12:08:50.965Z,99987.91
2017-11-04T12:11:22.305Z,99991.19
2017-11-04T12:13:53.588Z,99993.02
2017-11-04T12:16:25.187Z,99989.81
2017-11-04T12:18:56.513Z,99992.25
2017-11-04T12:21:27.844Z,99999.65
2017-11-04T12:23:59.534Z,99991.13
2017-11-04T12:26:30.859Z,99986.92
2017-11-04T12:29:03.519Z,99979.78
2017-11-04T12:31:36.676Z,99973.25
2017-11-04T12:34:09.180Z,99965.39
2017-11-04T12:36:41.984Z,99961.55
2017-11-04T12:39:15.732Z,99960.96
2017-11-04T12:41:48.349Z,99968.11
2017-11-04T12:44:21.694Z,99958.58
2017-11-04T12:46:54.319Z,99960.98
2017-11-04T12:49:27.064Z,99965.83
2017-11-04T12:51:59.341Z,99976.01
2017-11-04T12:54:31.990Z,99975.23
2017-11-04T12:57:05.186Z,99964.50
2017-11-04T12:59:37.608Z,99964.73
2017-11-04T13:02:09.405Z,99970.73
2017-11-04T13:04:41.053Z,99963.62
2017-11-04T13:07:12.365Z,99961.69
2017-11-04T13:09:43.971Z,99958.91
2017-11-04T13:12:15.387Z,99954.63
2017-11-04T13:14:46.733Z,99948.02
2017-11-04T13:17:18.336Z,99955.66
2017-11-04T13:19:49.673Z,99954.61
2017-11-04T13:22:21.061Z,99954.87
2017-11-04T13:24:52.752Z,99950.20
2017-11-04T13:27:24.490Z,99955.86
2017-11-04T13:29:56.793Z,99949.73
2017-11-04T13:32:28.112Z,99952.50
2017-11-04T13:34:59.636Z,99949.08
2017-11-04T13:37:31.306Z,99957.95
2017-11-04T13:40:05.494Z,99957.98
2017-11-04T13:42:37.061Z,99956.34
2017-11-04T13:45:08.523Z,99962.65
2017-11-04T13:47:40.166Z,99962.08
2017-11-04T13:50:14.580Z,99960.12
2017-11-04T13:52:46.051Z,99950.82
2017-11-04T13:55:18.603Z,99955.46
2017-11-04T13:57:49.945Z,99956.86
2017-11-04T14:00:21.467Z,99958.45
2017-11-04T14:02:53.399Z,99953.47
2017-11-04T14:05:25.965Z,99955.03
2017-11-04T14:07:57.508Z,99957.69
2017-11-04T14:10:29.182Z,99950.19
2017-11-04T14:13:00.551Z,99947.96
2017-11-04T14:15:32.752Z,99948.66
2017-11-04T14:18:07.422Z,99949.64
2017-11-04T14:20:40.720Z,99944.02
2017-11-04T14:23:13.073Z,99945.42
2017-11-04T14:25:45.288Z,99952.72
2017-11-04T14:28:20.053Z,99952.94
2017-11-04T14:30:52.200Z,99943.02
2017-11-04T14:33:25.535Z,99938.36
2017-11-04T14:35:59.240Z,99926.78
2017-11-04T14:38:32.159Z,99927.20
2017-11-04T14:41:04.769Z,99926.70
2017-11-04T14:43:36.874Z,99922.34
2017-11-04T14:46:08.211Z,99918.56
2017-11-04T14:48:40.562Z,99923.01
2017-11-04T14:51:15.752Z,99922.83
2017-11-04T14:53:49.667Z,99926.27
2017-11-04T14:56:22.338Z,99927.59
2017-11-04T14:58:55.749Z,99924.16
2017-11-04T15:01:28.634Z,99924.44
2017-11-04T15:04:00.998Z,99921.06
2017-11-04T15:06:33.824Z,99920.38
2017-11-04T15:09:07.455Z,99926.91
2017-11-04T15:11:41.129Z,99927.01
2017-11-04T15:14:15.019Z,99922.36
2017-11-04T15:16:48.357Z,99924.98
2017-11-04T15:19:20.772Z,99923.94
2017-11-04T15:21:53.741Z,99920.49
2017-11-04T15:24:26.798Z,99921.75
2017-11-04T15:26:59.387Z,99924.17
2017-11-04T15:29:32.247Z,99915.05
2017-11-04T15:32:06.725Z,99913.88
2017-11-04T15:34:39.246Z,99916.73
2017-11-04T15:37:11.844Z,99916.41
2017-11-04T15:39:44.506Z,99919.38
2017-11-04T15:42:17.577Z,99919.05
2017-11-04T15:44:50.495Z,99915.45
2017-11-04T15:47:22.772Z,99907.78
2017-11-04T15:49:55.346Z,99912.55
2017-11-04T15:52:29.989Z,99912.30
2017-11-04T15:55:02.645Z,99909.36
2017-11-04T15:57:35.118Z,99919.27
2017-11-04T16:02:39.229Z,99913.48
2017-11-04T16:05:12.277Z,99914.34
2017-11-04T16:07:44.364Z,99916.14
2017-11-04T16:10:16.693Z,99911.03
2017-11-04T16:12:49.380Z,99911.70
2017-11-04T16:15:21.663Z,99911.94
2017-11-04T16:17:54.438Z,99913.23
2017-11-04T16:20:26.788Z,99912.26
2017-11-04T16:22:59.279Z,99914.87
2017-11-04T16:25:32.060Z,99912.41
2017-11-04T16:28:05.217Z,99913.80
2017-11-04T16:30:37.900Z,99914.58
2017-11-04T16:33:10.849Z,99912.28
2017-11-04T16:35:43.798Z,99910.67
2017-11-04T16:38:16.987Z,99908.55
2017-11-04T16:40:49.546Z,99910.67
2017-11-04T16:43:22.399Z,99915.27
2017-11-04T16:45:55.517Z,99917.53
2017-11-04T16:48:28.300Z,99914.64
2017-11-04T16:51:01.083Z,99919.08
2017-11-04T16:53:33.844Z,99916.31
2017-11-04T16:56:07.710Z,99926.81
2017-11-04T16:58:40.006Z,99925.16
2017-11-04T17:01:14.726Z,99920.77
2017-11-04T17:03:47.300Z,99929.15
2017-11-04T17:06:19.575Z,99934.27
2017-11-04T17:08:51.617Z,99931.16
2017-11-04T17:11:24.380Z,99935.03
2017-11-04T17:13:56.958Z,99928.91
2017-11-04T17:16:29.907Z,99936.71
2017-11-04T17:19:02.744Z,99924.56
2017-11-04T17:21:35.438Z,99924.52
2017-11-04T17:24:08.632Z,99915.39
2017-11-04T17:26:41.505Z,99914.77
2017-11-04T17:29:15.414Z,99913.41
2017-11-04T17:31:47.527Z,99911.28
2017-11-04T17:34:21.148Z,99909.06
2017-11-04T17:36:53.431Z,99909.70
2017-11-04T17:39:26.668Z,99910.95
2017-11-04T17:41:59.546Z,99918.63
2017-11-04T17:44:32.692Z,99918.63
2017-11-04T17:47:05.846Z,99914.58
2017-11-04T17:49:38.774Z,99915.17
2017-11-04T17:52:12.025Z,99912.91
2017-11-04T17:54:44.923Z,99908.91
2017-11-04T17:57:18.322Z,99913.55
2017-11-04T17:59:49.979Z,99911.72
2017-11-04T18:02:21.401Z,99911.94
2017-11-04T18:04:53.093Z,99907.16
2017-11-04T18:07:25.931Z,99901.70
2017-11-04T18:09:57.263Z,99909.67
2017-11-04T18:12:28.925Z,99907.88
2017-11-04T18:15:01.611Z,99907.25
2017-11-04T18:17:33.227Z,99905.50
2017-11-04T18:20:05.422Z,99911.52
2017-11-04T18:22:36.740Z,99910.14
2017-11-04T18:25:08.376Z,99900.72
2017-11-04T18:27:39.848Z,99904.64
2017-11-04T18:30:13.643Z,99906.43
2017-11-04T18:32:45.250Z,99899.23
2017-11-04T18:35:16.592Z,99901.98
2017-11-04T18:37:48.246Z,99895.92
2017-11-04T18:40:19.909Z,99897.97
2017-11-04T18:42:51.240Z,99895.33
2017-11-04T18:45:22.853Z,99892.75
2017-11-04T18:47:54.554Z,99893.16
2017-11-04T18:50:25.859Z,99897.16
2017-11-04T18:52:58.030Z,99894.37
2017-11-04T18:55:29.354Z,99895.05
2017-11-04T18:58:01.484Z,99893.70
2017-11-04T19:00:33.146Z,99889.63
2017-11-04T19:03:04.750Z,99889.03
2017-11-04T19:05:36.137Z,99891.98
2017-11-04T19:08:07.744Z,99888.02
2017-11-04T19:10:39.117Z,99883.08
2017-11-04T19:13:11.655Z,99887.22
2017-11-04T19:15:43.427Z,99881.86
2017-11-04T19:18:15.654Z,99885.48
2017-11-04T19:20:46.958Z,99883.05
2017-11-04T19:24:21.600Z,99883.88
2017-11-04T19:26:52.923Z,99874.17
2017-11-04T19:29:24.568Z,99878.14
2017-11-04T19:31:55.862Z,99877.72
2017-11-04T19:34:27.150Z,99879.68
2017-11-04T19:36:58.833Z,99880.03
2017-11-04T19:39:30.208Z,99882.62
2017-11-04T19:42:03.366Z,99880.38
2017-11-04T19:44:34.672Z,99883.52
2017-11-04T19:47:05.991Z,99884.06
2017-11-04T19:49:38.497Z,99877.21
2017-11-04T19:52:09.912Z,99882.71
2017-11-04T19:54:42.819Z,99875.81
2017-11-04T19:57:14.434Z,99873.34
2017-11-04T19:59:46.071Z,99883.55
2017-11-04T20:02:17.620Z,99878.23
2017-11-04T20:04:49.330Z,99880.28
2017-11-04T20:07:21.253Z,99874.83
2017-11-04T20:09:52.644Z,99873.08
2017-11-04T20:12:24.367Z,99870.36
2017-11-04T20:14:56.708Z,99879.73
2017-11-04T20:17:28.038Z,99876.36
2017-11-04T20:19:59.663Z,99873.55
2017-11-04T20:22:31.035Z,99864.69
2017-11-04T20:25:03.829Z,99866.52
2017-11-04T20:27:36.365Z,99870.23
2017-11-04T20:30:07.897Z,99865.97
2017-11-04T20:32:39.785Z,99865.23
2017-11-04T20:35:11.207Z,99859.31
2017-11-04T20:37:42.530Z,99858.00
2017-11-04T20:40:16.573Z,99862.13
2017-11-04T20:42:47.912Z,99856.97
2017-11-04T20:45:19.588Z,99856.13
2017-11-04T20:47:51.775Z,99858.59
2017-11-04T20:50:23.073Z,99855.61
2017-11-04T20:52:54.723Z,99854.36
2017-11-04T20:55:26.111Z,99852.14
2017-11-04T20:57:58.242Z,99848.48
2017-11-04T21:00:29.897Z,99850.23
2017-11-04T21:03:01.450Z,99850.69
2017-11-04T21:05:32.819Z,99843.53
2017-11-04T21:08:05.658Z,99847.78
2017-11-04T21:10:37.376Z,99844.94
2017-11-04T21:13:08.740Z,99834.93
2017-11-04T21:15:40.991Z,99835.52
2017-11-04T21:18:12.830Z,99836.70
2017-11-04T21:20:44.695Z,99834.36
2017-11-04T21:23:16.329Z,99825.77
2017-11-04T21:25:48.649Z,99822.36
2017-11-04T21:28:21.212Z,99810.97
2017-11-04T21:30:53.527Z,99811.20
2017-11-04T21:33:26.130Z,99812.81
2017-11-04T21:35:57.445Z,99808.17
2017-11-04T21:38:29.767Z,99809.49
2017-11-04T21:41:01.642Z,99812.64
2017-11-04T21:43:32.991Z,99805.52
2017-11-04T21:46:05.423Z,99790.30
2017-11-04T21:48:36.717Z,99799.82
2017-11-04T21:51:08.094Z,99797.95
2017-11-04T21:53:40.444Z,99795.86
2017-11-04T21:56:11.869Z,99814.19
2017-11-04T21:58:43.267Z,99805.26
2017-11-04T22:01:16.219Z,99812.88
2017-11-04T22:03:47.518Z,99800.97
2017-11-04T22:06:19.547Z,99793.95
2017-11-04T22:08:52.332Z,99797.91
2017-11-04T22:11:23.665Z,99793.63
2017-11-04T22:13:54.952Z,99793.20
2017-11-04T22:16:26.591Z,99795.60
2017-11-04T22:18:57.906Z,99795.98
2017-11-04T22:21:29.239Z,99795.89
2017-11-04T22:24:00.907Z,99791.98
2017-11-04T22:26:32.340Z,99796.70
2017-11-04T22:29:04.030Z,99784.05
2017-11-04T22:31:35.713Z,99781.11
2017-11-04T22:34:07.017Z,99784.05
2017-11-04T22:36:38.599Z,99771.22
2017-11-04T22:39:09.926Z,99767.40
2017-11-04T22:41:41.219Z,99763.23
2017-11-04T22:44:12.753Z,99763.23
2017-11-04T22:46:44.054Z,99756.81
2017-11-04T22:49:16.176Z,99753.66
2017-11-04T22:51:47.504Z,99749.82
2017-11-04T22:54:19.383Z,99740.08
2017-11-04T22:56:51.005Z,99734.45
2017-11-04T22:59:23.358Z,99731.52
2017-11-04T23:01:54.880Z,99731.98
2017-11-04T23:04:26.512Z,99730.53
2017-11-04T23:06:57.788Z,99741.05
2017-11-04T23:09:30.522Z,99739.45
2017-11-04T23:12:03.912Z,99730.03
2017-11-04T23:14:35.239Z,99732.63
2017-11-04T23:17:06.525Z,99726.61
2017-11-04T23:19:38.104Z,99728.70
2017-11-04T23:22:09.411Z,99727.97
2017-11-04T23:24:40.733Z,99722.70
2017-11-04T23:27:13.680Z,99719.59
2017-11-04T23:29:44.948Z,99725.76
2017-11-04T23:32:16.987Z,99715.30
2017-11-04T23:34:48.322Z,99711.69
2017-11-04T23:37:19.849Z,99707.38
2017-11-04T23:39:51.479Z,99712.02
2017-11-04T23:42:22.796Z,99703.20
2017-11-04T23:44:54.112Z,99702.47
2017-11-04T23:47:25.735Z,99702.35
2017-11-04T23:49:58.031Z,99697.38
2017-11-04T23:52:29.346Z,99698.36
2017-11-04T23:55:01.072Z,99693.09
2017-11-04T23:57:32.422Z,99691.95
